createdAt,value
2022-08-14T00:02:33.926Z,12.60
2022-08-14T00:05:26.037Z,12.77
2022-08-14T00:08:15.811Z,12.80
2022-08-14T00:11:25.210Z,12.70
2022-08-14T00:14:18.374Z,13.07
2022-08-14T00:17:08.022Z,12.70
2022-08-14T00:19:59.888Z,14.00
2022-08-14T00:22:57.665Z,13.33
2022-08-14T00:25:58.897Z,13.33
2022-08-14T00:28:56.318Z,13.60
2022-08-14T00:31:46.997Z,13.47
2022-08-14T00:34:46.768Z,14.13
2022-08-14T00:37:40.510Z,13.27
2022-08-14T00:40:35.348Z,13.63
2022-08-14T00:43:25.150Z,13.40
2022-08-14T00:46:32.520Z,13.23
2022-08-14T00:49:23.186Z,13.70
2022-08-14T00:52:17.695Z,13.67
2022-08-14T00:55:10.549Z,13.30
2022-08-14T00:58:27.844Z,13.90
2022-08-14T01:01:22.547Z,12.97
2022-08-14T01:04:38.360Z,13.23
2022-08-14T01:07:23.617Z,12.90
2022-08-14T01:10:14.493Z,13.30
2022-08-14T01:13:05.588Z,14.00
2022-08-14T01:16:02.636Z,15.03
2022-08-14T01:19:10.067Z,14.70
2022-08-14T01:22:02.989Z,14.20
2022-08-14T01:24:53.266Z,14.97
2022-08-14T01:27:57.106Z,15.10
2022-08-14T01:30:47.284Z,14.33
2022-08-14T01:33:59.271Z,14.63
2022-08-14T01:36:49.864Z,14.97
2022-08-14T01:39:40.770Z,15.63
2022-08-14T01:42:32.102Z,15.77
2022-08-14T01:45:25.833Z,15.47
2022-08-14T01:48:16.148Z,15.60
2022-08-14T01:51:20.257Z,14.20
2022-08-14T01:54:14.678Z,14.40
2022-08-14T01:57:11.572Z,14.00
2022-08-14T02:00:00.988Z,13.30
2022-08-14T02:03:12.902Z,13.70
2022-08-14T02:06:32.236Z,13.70
2022-08-14T02:09:22.261Z,14.30
2022-08-14T02:12:19.613Z,13.00
2022-08-14T02:15:21.777Z,13.30
2022-08-14T02:18:11.907Z,13.90
2022-08-14T02:21:04.961Z,14.03
2022-08-14T02:23:57.132Z,14.20
2022-08-14T02:26:58.419Z,14.93
2022-08-14T02:30:01.126Z,13.70
2022-08-14T02:32:51.835Z,14.50
2022-08-14T02:35:42.680Z,14.50
2022-08-14T02:38:34.330Z,15.60
2022-08-14T02:41:28.484Z,14.47
2022-08-14T02:44:29.538Z,14.50
2022-08-14T02:47:21.367Z,14.73
2022-08-14T02:50:11.388Z,14.07
2022-08-14T02:53:02.879Z,14.27
2022-08-14T02:55:53.899Z,13.40
2022-08-14T02:58:48.195Z,14.00
2022-08-14T03:01:50.581Z,13.40
2022-08-14T03:04:45.401Z,13.40
2022-08-14T03:07:34.791Z,13.33
2022-08-14T03:10:32.334Z,13.43
2022-08-14T03:13:23.444Z,12.70
2022-08-14T03:16:20.345Z,12.83
2022-08-14T03:19:16.124Z,12.97
2022-08-14T03:22:17.806Z,13.23
2022-08-14T03:25:10.032Z,13.50
2022-08-14T03:28:03.746Z,13.00
2022-08-14T03:30:54.781Z,13.23
2022-08-14T03:33:44.958Z,13.23
2022-08-14T03:37:50.734Z,13.17
2022-08-14T03:39:54.421Z,12.87
2022-08-14T03:42:44.166Z,13.10
2022-08-14T03:45:36.664Z,13.50
2022-08-14T03:48:31.515Z,13.80
2022-08-14T03:51:29.887Z,13.40
2022-08-14T03:54:20.717Z,14.10
2022-08-14T03:57:11.648Z,14.00
2022-08-14T04:00:03.057Z,14.07
2022-08-14T04:03:18.229Z,14.20
2022-08-14T04:06:12.350Z,14.80
2022-08-14T04:09:10.744Z,14.90
2022-08-14T04:12:00.132Z,15.33
2022-08-14T04:14:53.258Z,15.77
2022-08-14T04:17:43.672Z,15.27
2022-08-14T04:20:35.981Z,16.00
2022-08-14T04:23:42.726Z,15.60
2022-08-14T04:26:41.989Z,15.13
2022-08-14T04:29:32.894Z,14.27
2022-08-14T04:32:58.391Z,15.00
2022-08-14T04:35:56.789Z,14.53
2022-08-14T04:39:03.154Z,14.90
2022-08-14T04:42:18.565Z,15.30
2022-08-14T04:45:08.927Z,14.90
2022-08-14T04:48:39.086Z,15.63
2022-08-14T04:51:25.954Z,15.20
2022-08-14T04:54:17.259Z,15.30
2022-08-14T04:57:07.041Z,15.47
2022-08-14T05:00:00.556Z,14.80
2022-08-14T05:02:50.674Z,14.20
2022-08-14T05:05:41.458Z,14.37
2022-08-14T05:08:56.618Z,14.00
2022-08-14T05:11:44.096Z,14.47
2022-08-14T05:14:46.258Z,13.60
2022-08-14T05:17:58.750Z,14.20
2022-08-14T05:21:58.151Z,13.27
2022-08-14T05:24:17.818Z,12.83
2022-08-14T05:27:09.555Z,13.67
2022-08-14T05:29:59.059Z,12.80
2022-08-14T05:32:48.684Z,13.37
2022-08-14T05:35:38.173Z,12.70
2022-08-14T05:38:36.905Z,13.20
2022-08-14T05:41:51.014Z,13.03
2022-08-14T05:44:35.680Z,12.83
2022-08-14T05:47:28.715Z,11.97
2022-08-14T05:50:23.680Z,12.40
2022-08-14T05:53:13.128Z,12.10
2022-08-14T05:56:06.223Z,12.50
2022-08-14T05:58:56.205Z,12.50
2022-08-14T06:01:45.635Z,12.17
2022-08-14T06:04:36.176Z,12.00
2022-08-14T06:07:25.771Z,11.80
2022-08-14T06:10:15.718Z,11.80
2022-08-14T06:13:09.984Z,11.90
2022-08-14T06:16:01.211Z,12.40
2022-08-14T06:18:52.998Z,12.00
2022-08-14T06:21:42.589Z,12.10
2022-08-14T06:24:34.763Z,12.10
2022-08-14T06:27:25.107Z,12.43
2022-08-14T06:30:30.093Z,12.33
2022-08-14T06:35:04.168Z,11.90
2022-08-14T06:36:40.985Z,12.07
2022-08-14T06:39:36.968Z,12.67
2022-08-14T06:42:32.871Z,12.10
2022-08-14T06:45:26.067Z,13.80
2022-08-14T06:48:17.488Z,13.07
2022-08-14T06:51:06.975Z,13.20
2022-08-14T06:53:57.079Z,12.53
2022-08-14T06:56:54.469Z,12.47
2022-08-14T06:59:46.491Z,12.90
2022-08-14T07:02:54.911Z,13.17
2022-08-14T07:05:55.382Z,12.33
2022-08-14T07:08:46.196Z,12.60
2022-08-14T07:11:37.660Z,12.37
2022-08-14T07:14:27.161Z,12.10
2022-08-14T07:17:16.605Z,12.33
2022-08-14T07:20:09.804Z,11.80
2022-08-14T07:23:09.184Z,12.27
2022-08-14T07:26:03.554Z,12.10
2022-08-14T07:28:53.539Z,11.50
2022-08-14T07:31:44.187Z,12.23
2022-08-14T07:34:40.827Z,12.13
2022-08-14T07:37:32.182Z,12.03
2022-08-14T07:40:27.760Z,12.00
2022-08-14T07:43:19.619Z,12.20
2022-08-14T07:46:11.040Z,11.63
2022-08-14T07:49:01.808Z,11.97
2022-08-14T07:51:52.504Z,11.40
2022-08-14T07:54:44.922Z,11.60
2022-08-14T07:57:35.875Z,11.00
2022-08-14T08:00:31.648Z,10.77
2022-08-14T08:03:25.149Z,19.90
2022-08-14T08:06:18.462Z,14.05
2022-08-14T08:09:11.181Z,11.35
2022-08-14T08:12:05.045Z,10.43
2022-08-14T08:14:56.842Z,10.30
2022-08-14T08:17:53.488Z,9.73
2022-08-14T08:20:53.477Z,9.73
2022-08-14T08:23:51.030Z,9.90
2022-08-14T08:26:40.902Z,9.73
2022-08-14T08:29:33.186Z,9.52
2022-08-14T08:32:29.946Z,9.68
2022-08-14T08:35:21.733Z,9.20
2022-08-14T08:39:17.145Z,9.25
2022-08-14T08:41:24.410Z,9.30
2022-08-14T08:44:31.130Z,9.40
2022-08-14T08:47:24.004Z,9.02
2022-08-14T08:53:19.939Z,9.20
2022-08-14T08:56:09.373Z,9.20
2022-08-14T08:58:59.551Z,9.20
2022-08-14T09:01:56.374Z,9.10
2022-08-14T09:04:53.240Z,8.90
2022-08-14T09:07:43.195Z,9.18
2022-08-14T09:10:32.630Z,9.30
2022-08-14T09:13:26.235Z,9.65
2022-08-14T09:16:19.206Z,9.18
2022-08-14T09:19:09.899Z,9.00
2022-08-14T09:22:01.347Z,9.27
2022-08-14T09:25:11.570Z,9.10
2022-08-14T09:28:05.454Z,9.20
2022-08-14T09:30:57.929Z,9.23
2022-08-14T09:34:09.220Z,9.38
2022-08-14T09:37:40.955Z,9.05
2022-08-14T09:40:44.276Z,9.00
2022-08-14T09:43:49.747Z,9.20
2022-08-14T09:46:40.503Z,9.10
2022-08-14T09:49:42.408Z,8.88
2022-08-14T09:52:34.522Z,9.30
2022-08-14T09:55:26.163Z,9.07
2022-08-14T09:58:22.734Z,9.10
2022-08-14T10:01:15.180Z,9.10
2022-08-14T10:04:33.549Z,9.02
2022-08-14T10:07:33.913Z,9.00
2022-08-14T10:10:34.479Z,9.25
2022-08-14T10:13:26.277Z,9.00
2022-08-14T10:16:21.972Z,9.52
2022-08-14T10:19:20.498Z,9.38
2022-08-14T10:23:13.415Z,9.20
2022-08-14T10:25:22.942Z,8.98
2022-08-14T10:28:51.499Z,9.20
2022-08-14T10:31:29.579Z,9.43
2022-08-14T10:34:36.666Z,9.35
2022-08-14T10:37:27.965Z,9.57
2022-08-14T10:40:38.777Z,9.38
2022-08-14T10:43:33.886Z,9.35
2022-08-14T10:47:40.419Z,9.43
2022-08-14T10:49:35.875Z,9.60
2022-08-14T10:52:29.911Z,9.50
2022-08-14T10:55:20.938Z,9.30
2022-08-14T10:58:12.448Z,9.55
2022-08-14T11:01:08.115Z,9.88
2022-08-14T11:03:57.834Z,9.38
2022-08-14T11:06:54.129Z,9.55
2022-08-14T11:09:55.724Z,9.35
2022-08-14T11:12:49.047Z,9.40
2022-08-14T11:15:41.010Z,10.05
2022-08-14T11:18:36.320Z,9.70
2022-08-14T11:21:34.120Z,9.95
2022-08-14T11:24:54.213Z,9.60
2022-08-14T11:27:41.628Z,10.17
2022-08-14T11:30:50.781Z,10.27
2022-08-14T11:33:43.320Z,10.03
2022-08-14T11:36:57.072Z,10.20
2022-08-14T11:39:42.380Z,10.23
2022-08-14T11:43:06.145Z,10.30
2022-08-14T11:45:49.600Z,10.23
2022-08-14T11:49:02.358Z,10.30
2022-08-14T11:51:55.498Z,10.50
2022-08-14T11:55:00.534Z,10.20
2022-08-14T11:58:03.644Z,10.47
2022-08-14T12:00:58.751Z,10.87
2022-08-14T12:03:51.969Z,10.30
2022-08-14T12:06:51.612Z,10.70
2022-08-14T12:09:43.091Z,10.37
2022-08-14T12:12:35.619Z,10.60
2022-08-14T12:15:37.932Z,10.50
2022-08-14T12:18:36.659Z,10.40
2022-08-14T12:21:29.562Z,10.40
2022-08-14T12:24:35.996Z,10.73
2022-08-14T12:27:41.467Z,10.70
2022-08-14T12:30:42.389Z,10.77
2022-08-14T12:33:34.477Z,10.77
2022-08-14T12:36:24.038Z,10.23
2022-08-14T12:39:24.665Z,10.80
2022-08-14T12:42:34.578Z,10.90
2022-08-14T12:45:34.433Z,10.47
2022-08-14T12:48:32.351Z,10.87
2022-08-14T12:51:27.169Z,11.00
2022-08-14T12:54:27.174Z,10.53
2022-08-14T12:57:20.609Z,11.30
2022-08-14T13:00:23.145Z,10.83
2022-08-14T13:03:27.002Z,10.40
2022-08-14T13:06:17.817Z,10.67
2022-08-14T13:09:11.588Z,10.67
2022-08-14T13:12:32.166Z,10.50
2022-08-14T13:15:17.813Z,11.43
2022-08-14T13:18:12.325Z,10.73
2022-08-14T13:21:05.589Z,10.20
2022-08-14T13:23:57.043Z,10.73
2022-08-14T13:26:51.382Z,10.80
2022-08-14T13:29:47.198Z,10.57
2022-08-14T13:32:40.560Z,10.70
2022-08-14T13:35:29.958Z,10.33
2022-08-14T13:38:22.220Z,10.63
2022-08-14T13:41:12.372Z,10.43
2022-08-14T13:44:02.120Z,10.27
2022-08-14T13:46:51.552Z,10.57
2022-08-14T13:49:58.043Z,10.33
2022-08-14T13:52:59.334Z,10.37
2022-08-14T13:55:52.075Z,10.50
2022-08-14T13:58:46.880Z,11.10
2022-08-14T14:01:43.458Z,10.43
2022-08-14T14:04:34.380Z,10.63
2022-08-14T14:07:26.137Z,10.80
2022-08-14T14:10:28.153Z,10.73
2022-08-14T14:13:20.186Z,10.67
2022-08-14T14:16:11.782Z,10.60
2022-08-14T14:19:09.703Z,10.57
2022-08-14T14:22:01.507Z,10.70
2022-08-14T14:24:54.622Z,10.67
2022-08-14T14:27:45.562Z,10.50
2022-08-14T14:30:52.713Z,10.47
2022-08-14T14:33:49.003Z,10.70
2022-08-14T14:36:41.513Z,11.00
2022-08-14T14:39:37.962Z,10.80
2022-08-14T14:42:53.212Z,11.10
2022-08-14T14:45:46.895Z,11.03
2022-08-14T14:48:46.730Z,11.03
2022-08-14T14:51:51.153Z,11.00
2022-08-14T14:54:43.267Z,11.77
2022-08-14T14:57:35.212Z,10.87
2022-08-14T15:00:30.921Z,10.97
2022-08-14T15:03:20.943Z,10.87
2022-08-14T15:06:10.621Z,11.30
2022-08-14T15:09:04.843Z,10.73
2022-08-14T15:11:58.708Z,11.17
2022-08-14T15:14:54.920Z,10.60
2022-08-14T15:17:59.025Z,11.40
2022-08-14T15:20:48.554Z,10.83
2022-08-14T15:23:44.526Z,10.57
2022-08-14T15:26:35.621Z,10.90
2022-08-14T15:29:25.201Z,10.60
2022-08-14T15:32:14.637Z,10.57
2022-08-14T15:35:09.314Z,11.30
2022-08-14T15:38:08.048Z,10.97
2022-08-14T15:40:57.832Z,10.87
2022-08-14T15:43:47.215Z,10.77
2022-08-14T15:46:43.542Z,10.83
2022-08-14T15:49:35.291Z,10.80
2022-08-14T15:52:33.092Z,11.13
2022-08-14T15:55:24.586Z,10.77
2022-08-14T15:58:14.528Z,10.90
2022-08-14T16:01:50.785Z,11.20
2022-08-14T16:04:33.082Z,11.30
2022-08-14T16:07:25.153Z,11.00
2022-08-14T16:10:29.029Z,11.00
2022-08-14T16:13:39.871Z,11.10
2022-08-14T16:16:50.547Z,11.10
2022-08-14T16:19:47.545Z,11.27
2022-08-14T16:22:57.408Z,11.43
2022-08-14T16:25:49.089Z,11.57
2022-08-14T16:28:42.903Z,12.23
2022-08-14T16:31:36.329Z,11.73
2022-08-14T16:34:46.346Z,11.67
2022-08-14T16:37:41.351Z,11.80
2022-08-14T16:40:33.120Z,11.67
2022-08-14T16:43:26.789Z,11.37
2022-08-14T16:46:22.469Z,11.70
2022-08-14T16:49:16.337Z,11.83
2022-08-14T16:52:25.747Z,11.40
2022-08-14T16:55:22.476Z,11.23
2022-08-14T16:58:29.598Z,12.30
2022-08-14T17:01:24.434Z,11.60
2022-08-14T17:04:24.952Z,11.43
2022-08-14T17:07:16.090Z,11.70
2022-08-14T17:10:09.420Z,11.60
2022-08-14T17:13:18.215Z,11.40
2022-08-14T17:16:23.963Z,11.63
2022-08-14T17:19:19.425Z,11.70
2022-08-14T17:22:12.359Z,11.93
2022-08-14T17:25:03.945Z,11.80
2022-08-14T17:28:51.944Z,11.73
2022-08-14T17:31:57.723Z,11.10
2022-08-14T17:34:49.661Z,11.00
2022-08-14T17:37:45.254Z,11.47
2022-08-14T17:40:34.824Z,11.67
2022-08-14T17:43:41.982Z,11.47
2022-08-14T17:46:43.545Z,11.60
2022-08-14T17:49:40.450Z,11.60
2022-08-14T17:52:40.789Z,11.50
2022-08-14T17:56:03.408Z,11.83
2022-08-14T17:58:42.850Z,11.60
2022-08-14T18:01:35.918Z,11.60
2022-08-14T18:04:29.071Z,12.13
2022-08-14T18:07:59.970Z,11.77
2022-08-14T18:10:55.480Z,11.77
2022-08-14T18:13:51.014Z,11.73
2022-08-14T18:16:43.850Z,11.60
2022-08-14T18:19:41.597Z,12.17
2022-08-14T18:22:37.801Z,11.90
2022-08-14T18:25:34.380Z,11.47
2022-08-14T18:28:48.476Z,11.10
2022-08-14T18:31:43.869Z,11.37
2022-08-14T18:34:50.762Z,11.70
2022-08-14T18:37:42.344Z,11.27
2022-08-14T18:40:45.698Z,12.40
2022-08-14T18:43:44.717Z,12.10
2022-08-14T18:47:21.146Z,11.77
2022-08-14T18:50:26.946Z,11.97
2022-08-14T18:53:24.759Z,11.80
2022-08-14T18:56:18.372Z,12.40
2022-08-14T18:59:35.836Z,12.83
2022-08-14T19:02:44.522Z,12.00
2022-08-14T19:06:01.173Z,12.50
2022-08-14T19:08:52.505Z,12.27
2022-08-14T19:11:50.311Z,11.93
2022-08-14T19:14:51.160Z,12.20
2022-08-14T19:18:05.002Z,11.97
2022-08-14T19:20:59.021Z,12.07
2022-08-14T19:24:27.155Z,12.33
2022-08-14T19:27:24.242Z,12.47
2022-08-14T19:30:25.726Z,12.60
2022-08-14T19:33:52.815Z,12.17
2022-08-14T19:37:05.030Z,12.33
2022-08-14T19:39:57.708Z,12.40
2022-08-14T19:42:50.362Z,12.90
2022-08-14T19:45:40.431Z,13.23
2022-08-14T19:48:29.957Z,12.70
2022-08-14T19:51:19.907Z,12.87
2022-08-14T19:54:13.555Z,12.47
2022-08-14T19:57:06.186Z,13.07
2022-08-14T20:00:05.909Z,12.23
2022-08-14T20:03:18.595Z,12.33
2022-08-14T20:06:09.129Z,12.20
2022-08-14T20:10:59.682Z,12.00
2022-08-14T20:12:34.750Z,12.37
2022-08-14T20:15:46.653Z,11.80
2022-08-14T20:18:49.127Z,11.93
2022-08-14T20:21:58.447Z,12.20
2022-08-14T20:24:50.095Z,12.90
2022-08-14T20:27:49.840Z,12.70
2022-08-14T20:30:53.708Z,12.60
2022-08-14T20:34:03.470Z,13.30
2022-08-14T20:37:04.210Z,12.67
2022-08-14T20:39:55.659Z,13.00
2022-08-14T20:43:08.513Z,13.40
2022-08-14T20:45:59.241Z,12.67
2022-08-14T20:49:01.207Z,12.50
2022-08-14T20:51:59.419Z,12.40
2022-08-14T20:54:51.712Z,12.47
2022-08-14T20:57:43.764Z,12.80
2022-08-14T21:00:52.275Z,12.50
2022-08-14T21:03:57.305Z,11.67
2022-08-14T21:07:23.414Z,12.30
2022-08-14T21:10:36.351Z,12.63
2022-08-14T21:13:27.509Z,11.90
2022-08-14T21:16:35.157Z,12.50
2022-08-14T21:19:28.985Z,12.00
2022-08-14T21:22:19.747Z,12.60
2022-08-14T21:25:11.076Z,12.07
2022-08-14T21:28:04.195Z,12.70
2022-08-14T21:30:55.152Z,12.17
2022-08-14T21:33:46.922Z,12.50
2022-08-14T21:36:51.684Z,12.00
2022-08-14T21:39:41.026Z,13.10
2022-08-14T21:42:30.897Z,12.53
2022-08-14T21:45:20.819Z,12.30
2022-08-14T21:48:12.385Z,12.23
2022-08-14T21:51:54.539Z,12.37
2022-08-14T21:54:30.410Z,12.53
2022-08-14T21:57:56.323Z,12.30
2022-08-14T22:00:42.595Z,11.90
2022-08-14T22:03:35.057Z,12.33
2022-08-14T22:06:28.643Z,12.30
2022-08-14T22:09:24.599Z,12.60
2022-08-14T22:12:47.367Z,13.13
2022-08-14T22:15:38.595Z,12.80
2022-08-14T22:18:34.412Z,12.80
2022-08-14T22:21:26.174Z,13.40
2022-08-14T22:24:37.691Z,13.70
2022-08-14T22:27:29.516Z,12.97
2022-08-14T22:30:21.009Z,12.90
2022-08-14T22:33:13.289Z,13.63
2022-08-14T22:36:26.193Z,13.53
2022-08-14T22:39:16.679Z,13.53
2022-08-14T22:42:21.423Z,13.67
2022-08-14T22:45:14.463Z,13.27
2022-08-14T22:48:10.900Z,13.30
2022-08-14T22:51:01.265Z,12.77
2022-08-14T22:53:54.080Z,12.83
2022-08-14T22:56:43.494Z,14.00
2022-08-14T22:59:36.810Z,12.77
2022-08-14T23:02:32.886Z,12.70
2022-08-14T23:05:39.084Z,12.83
2022-08-14T23:09:01.881Z,12.60
2022-08-14T23:11:39.290Z,12.63
2022-08-14T23:14:30.671Z,12.10
2022-08-14T23:17:20.245Z,12.40
2022-08-14T23:20:23.312Z,12.80
2022-08-14T23:23:22.701Z,12.67
2022-08-14T23:26:49.301Z,12.30
2022-08-14T23:29:22.598Z,12.30
2022-08-14T23:32:19.019Z,12.80
2022-08-14T23:35:10.096Z,12.23
2022-08-14T23:38:02.884Z,12.73
2022-08-14T23:40:52.318Z,12.20
2022-08-14T23:43:44.099Z,12.87
2022-08-14T23:46:34.639Z,12.70
2022-08-14T23:49:24.650Z,12.70
2022-08-14T23:52:55.558Z,12.40
2022-08-14T23:55:26.335Z,12.50
2022-08-14T23:58:29.872Z,12.73
